sensor_id;sensor_type;location;lat;lon;timestamp;temperature;humidity
52739;DHT22;52466;40.122;18.318;2022-07-05T00:00:09;27.20;81.70
52739;DHT22;52466;40.122;18.318;2022-07-05T00:03:17;27.20;81.70
52739;DHT22;52466;40.122;18.318;2022-07-05T00:06:25;27.20;81.80
52739;DHT22;52466;40.122;18.318;2022-07-05T00:09:33;27.20;81.80
52739;DHT22;52466;40.122;18.318;2022-07-05T00:12:40;27.30;81.70
52739;DHT22;52466;40.122;18.318;2022-07-05T00:15:48;27.20;81.50
52739;DHT22;52466;40.122;18.318;2022-07-05T00:18:56;27.20;81.50
52739;DHT22;52466;40.122;18.318;2022-07-05T00:22:04;27.10;81.50
52739;DHT22;52466;40.122;18.318;2022-07-05T00:25:13;27.10;81.60
52739;DHT22;52466;40.122;18.318;2022-07-05T00:28:20;27.00;81.80
52739;DHT22;52466;40.122;18.318;2022-07-05T00:31:28;27.00;81.80
52739;DHT22;52466;40.122;18.318;2022-07-05T00:34:36;27.00;81.70
52739;DHT22;52466;40.122;18.318;2022-07-05T00:37:44;27.10;81.50
52739;DHT22;52466;40.122;18.318;2022-07-05T00:40:52;27.10;81.20
52739;DHT22;52466;40.122;18.318;2022-07-05T00:44:06;27.10;80.60
52739;DHT22;52466;40.122;18.318;2022-07-05T00:47:14;27.20;80.40
52739;DHT22;52466;40.122;18.318;2022-07-05T00:50:22;27.20;80.00
52739;DHT22;52466;40.122;18.318;2022-07-05T00:53:29;27.20;79.70
52739;DHT22;52466;40.122;18.318;2022-07-05T00:56:37;27.10;79.50
52739;DHT22;52466;40.122;18.318;2022-07-05T00:59:45;27.10;79.20
52739;DHT22;52466;40.122;18.318;2022-07-05T01:03:22;27.10;78.90
52739;DHT22;52466;40.122;18.318;2022-07-05T01:07:11;27.10;78.70
52739;DHT22;52466;40.122;18.318;2022-07-05T01:10:19;27.10;78.40
52739;DHT22;52466;40.122;18.318;2022-07-05T01:13:28;27.20;78.00
52739;DHT22;52466;40.122;18.318;2022-07-05T01:16:39;27.20;77.40
52739;DHT22;52466;40.122;18.318;2022-07-05T01:19:47;27.30;76.80
52739;DHT22;52466;40.122;18.318;2022-07-05T01:22:57;27.30;76.20
52739;DHT22;52466;40.122;18.318;2022-07-05T01:26:07;27.30;75.60
52739;DHT22;52466;40.122;18.318;2022-07-05T01:29:15;27.20;75.30
52739;DHT22;52466;40.122;18.318;2022-07-05T01:32:23;27.20;74.90
52739;DHT22;52466;40.122;18.318;2022-07-05T01:35:31;27.10;74.70
52739;DHT22;52466;40.122;18.318;2022-07-05T01:39:01;27.10;74.30
52739;DHT22;52466;40.122;18.318;2022-07-05T01:42:08;27.10;74.00
52739;DHT22;52466;40.122;18.318;2022-07-05T01:45:16;27.00;73.90
52739;DHT22;52466;40.122;18.318;2022-07-05T01:48:44;27.00;73.80
52739;DHT22;52466;40.122;18.318;2022-07-05T01:51:57;26.90;73.70
52739;DHT22;52466;40.122;18.318;2022-07-05T01:55:07;26.90;73.70
52739;DHT22;52466;40.122;18.318;2022-07-05T01:58:15;27.00;73.60
52739;DHT22;52466;40.122;18.318;2022-07-05T02:01:34;27.00;73.20
52739;DHT22;52466;40.122;18.318;2022-07-05T02:04:42;27.00;72.80
52739;DHT22;52466;40.122;18.318;2022-07-05T02:07:50;27.00;72.60
52739;DHT22;52466;40.122;18.318;2022-07-05T02:10:58;27.00;72.40
52739;DHT22;52466;40.122;18.318;2022-07-05T02:14:06;27.10;72.20
52739;DHT22;52466;40.122;18.318;2022-07-05T02:17:15;27.10;71.90
52739;DHT22;52466;40.122;18.318;2022-07-05T02:20:28;27.10;71.40
52739;DHT22;52466;40.122;18.318;2022-07-05T02:23:36;27.10;71.00
52739;DHT22;52466;40.122;18.318;2022-07-05T02:26:50;27.20;70.60
52739;DHT22;52466;40.122;18.318;2022-07-05T02:29:58;27.20;70.20
52739;DHT22;52466;40.122;18.318;2022-07-05T02:33:12;27.20;70.00
52739;DHT22;52466;40.122;18.318;2022-07-05T02:36:19;27.20;69.90
52739;DHT22;52466;40.122;18.318;2022-07-05T02:39:27;27.20;69.90
52739;DHT22;52466;40.122;18.318;2022-07-05T02:42:38;27.10;70.10
52739;DHT22;52466;40.122;18.318;2022-07-05T02:45:49;27.10;70.30
52739;DHT22;52466;40.122;18.318;2022-07-05T02:48:57;27.10;70.10
52739;DHT22;52466;40.122;18.318;2022-07-05T02:52:07;27.00;70.00
52739;DHT22;52466;40.122;18.318;2022-07-05T02:55:16;27.00;70.10
52739;DHT22;52466;40.122;18.318;2022-07-05T02:58:24;26.80;70.50
52739;DHT22;52466;40.122;18.318;2022-07-05T03:01:33;26.60;71.00
52739;DHT22;52466;40.122;18.318;2022-07-05T03:04:45;26.60;71.20
52739;DHT22;52466;40.122;18.318;2022-07-05T03:07:54;26.50;71.30
52739;DHT22;52466;40.122;18.318;2022-07-05T03:11:05;26.50;71.80
52739;DHT22;52466;40.122;18.318;2022-07-05T03:14:13;26.50;71.80
52739;DHT22;52466;40.122;18.318;2022-07-05T03:17:22;26.50;71.70
52739;DHT22;52466;40.122;18.318;2022-07-05T03:20:30;26.50;71.70
52739;DHT22;52466;40.122;18.318;2022-07-05T03:23:38;26.50;71.70
52739;DHT22;52466;40.122;18.318;2022-07-05T03:26:45;26.30;71.90
52739;DHT22;52466;40.122;18.318;2022-07-05T03:29:54;26.20;72.00
52739;DHT22;52466;40.122;18.318;2022-07-05T03:33:02;26.20;72.60
52739;DHT22;52466;40.122;18.318;2022-07-05T03:36:12;26.20;72.40
52739;DHT22;52466;40.122;18.318;2022-07-05T03:39:20;26.30;72.40
52739;DHT22;52466;40.122;18.318;2022-07-05T03:42:28;26.30;72.30
52739;DHT22;52466;40.122;18.318;2022-07-05T03:45:36;26.40;72.00
52739;DHT22;52466;40.122;18.318;2022-07-05T03:48:44;26.40;71.50
52739;DHT22;52466;40.122;18.318;2022-07-05T03:51:53;26.30;71.60
52739;DHT22;52466;40.122;18.318;2022-07-05T03:55:01;26.20;71.90
52739;DHT22;52466;40.122;18.318;2022-07-05T03:58:09;26.20;72.30
52739;DHT22;52466;40.122;18.318;2022-07-05T04:01:18;26.30;72.20
52739;DHT22;52466;40.122;18.318;2022-07-05T04:04:27;26.40;72.00
52739;DHT22;52466;40.122;18.318;2022-07-05T04:07:34;26.50;71.80
52739;DHT22;52466;40.122;18.318;2022-07-05T04:10:57;26.60;71.40
52739;DHT22;52466;40.122;18.318;2022-07-05T04:14:05;26.80;70.90
52739;DHT22;52466;40.122;18.318;2022-07-05T04:17:14;27.00;70.50
52739;DHT22;52466;40.122;18.318;2022-07-05T04:20:23;27.20;70.20
52739;DHT22;52466;40.122;18.318;2022-07-05T04:23:32;27.40;69.70
52739;DHT22;52466;40.122;18.318;2022-07-05T04:26:40;27.60;68.70
52739;DHT22;52466;40.122;18.318;2022-07-05T04:29:49;27.80;67.40
52739;DHT22;52466;40.122;18.318;2022-07-05T04:32:57;28.00;65.80
52739;DHT22;52466;40.122;18.318;2022-07-05T04:36:05;28.20;64.70
52739;DHT22;52466;40.122;18.318;2022-07-05T04:39:14;28.20;63.90
52739;DHT22;52466;40.122;18.318;2022-07-05T04:42:30;28.40;63.20
52739;DHT22;52466;40.122;18.318;2022-07-05T04:45:38;28.50;62.20
52739;DHT22;52466;40.122;18.318;2022-07-05T04:48:47;28.50;61.80
52739;DHT22;52466;40.122;18.318;2022-07-05T04:51:55;28.50;61.50
52739;DHT22;52466;40.122;18.318;2022-07-05T04:54:57;28.60;61.30
52739;DHT22;52466;40.122;18.318;2022-07-05T04:58:05;28.80;60.80
52739;DHT22;52466;40.122;18.318;2022-07-05T05:01:13;28.90;59.90
52739;DHT22;52466;40.122;18.318;2022-07-05T05:04:20;29.00;59.30
52739;DHT22;52466;40.122;18.318;2022-07-05T05:07:28;29.10;58.20
52739;DHT22;52466;40.122;18.318;2022-07-05T05:10:36;29.30;57.60
52739;DHT22;52466;40.122;18.318;2022-07-05T05:13:44;29.50;57.00
52739;DHT22;52466;40.122;18.318;2022-07-05T05:16:52;29.60;56.40
52739;DHT22;52466;40.122;18.318;2022-07-05T05:20:00;30.00;56.00
52739;DHT22;52466;40.122;18.318;2022-07-05T05:23:08;30.00;55.30
52739;DHT22;52466;40.122;18.318;2022-07-05T05:26:15;30.20;54.90
52739;DHT22;52466;40.122;18.318;2022-07-05T05:29:23;30.30;54.30
52739;DHT22;52466;40.122;18.318;2022-07-05T05:32:31;30.70;54.10
52739;DHT22;52466;40.122;18.318;2022-07-05T05:35:39;31.20;53.00
52739;DHT22;52466;40.122;18.318;2022-07-05T05:38:47;31.50;51.00
52739;DHT22;52466;40.122;18.318;2022-07-05T05:41:55;32.00;49.90
52739;DHT22;52466;40.122;18.318;2022-07-05T05:45:03;32.30;48.70
52739;DHT22;52466;40.122;18.318;2022-07-05T05:48:11;32.90;47.80
52739;DHT22;52466;40.122;18.318;2022-07-05T05:51:19;33.50;45.80
52739;DHT22;52466;40.122;18.318;2022-07-05T05:54:26;34.00;43.80
52739;DHT22;52466;40.122;18.318;2022-07-05T05:57:34;34.60;42.90
52739;DHT22;52466;40.122;18.318;2022-07-05T06:00:44;35.30;41.20
52739;DHT22;52466;40.122;18.318;2022-07-05T06:03:55;35.90;39.90
52739;DHT22;52466;40.122;18.318;2022-07-05T06:07:03;36.50;38.90
52739;DHT22;52466;40.122;18.318;2022-07-05T06:10:14;37.00;37.80
52739;DHT22;52466;40.122;18.318;2022-07-05T06:13:22;37.90;36.30
52739;DHT22;52466;40.122;18.318;2022-07-05T06:16:29;37.70;35.40
52739;DHT22;52466;40.122;18.318;2022-07-05T06:19:37;37.40;36.00
52739;DHT22;52466;40.122;18.318;2022-07-05T06:22:45;37.10;36.80
52739;DHT22;52466;40.122;18.318;2022-07-05T06:25:53;37.20;36.80
52739;DHT22;52466;40.122;18.318;2022-07-05T06:29:01;37.30;36.90
52739;DHT22;52466;40.122;18.318;2022-07-05T06:32:08;37.00;37.00
52739;DHT22;52466;40.122;18.318;2022-07-05T06:35:16;36.90;37.50
52739;DHT22;52466;40.122;18.318;2022-07-05T06:38:24;36.80;37.70
52739;DHT22;52466;40.122;18.318;2022-07-05T06:41:32;36.90;37.40
52739;DHT22;52466;40.122;18.318;2022-07-05T06:44:40;37.00;37.60
52739;DHT22;52466;40.122;18.318;2022-07-05T06:48:02;37.10;37.60
52739;DHT22;52466;40.122;18.318;2022-07-05T06:51:10;37.10;37.70
52739;DHT22;52466;40.122;18.318;2022-07-05T06:54:17;36.60;38.00
52739;DHT22;52466;40.122;18.318;2022-07-05T06:57:25;36.20;39.00
52739;DHT22;52466;40.122;18.318;2022-07-05T07:00:35;36.50;38.90
52739;DHT22;52466;40.122;18.318;2022-07-05T07:03:43;37.00;38.00
52739;DHT22;52466;40.122;18.318;2022-07-05T07:06:50;37.30;37.80
52739;DHT22;52466;40.122;18.318;2022-07-05T07:09:59;36.80;37.50
52739;DHT22;52466;40.122;18.318;2022-07-05T07:13:07;36.10;39.40
52739;DHT22;52466;40.122;18.318;2022-07-05T07:16:15;35.60;40.30
52739;DHT22;52466;40.122;18.318;2022-07-05T07:19:22;36.00;40.40
52739;DHT22;52466;40.122;18.318;2022-07-05T07:22:30;36.10;39.80
52739;DHT22;52466;40.122;18.318;2022-07-05T07:25:38;36.30;38.60
52739;DHT22;52466;40.122;18.318;2022-07-05T07:28:46;36.60;37.90
52739;DHT22;52466;40.122;18.318;2022-07-05T07:31:55;36.50;38.40
52739;DHT22;52466;40.122;18.318;2022-07-05T07:35:03;36.60;37.80
52739;DHT22;52466;40.122;18.318;2022-07-05T07:38:10;36.30;38.00
52739;DHT22;52466;40.122;18.318;2022-07-05T07:41:18;36.00;38.40
52739;DHT22;52466;40.122;18.318;2022-07-05T07:44:26;36.10;38.60
52739;DHT22;52466;40.122;18.318;2022-07-05T07:47:35;36.10;39.70
52739;DHT22;52466;40.122;18.318;2022-07-05T07:50:42;36.20;38.70
52739;DHT22;52466;40.122;18.318;2022-07-05T07:53:50;36.10;40.30
52739;DHT22;52466;40.122;18.318;2022-07-05T07:56:58;36.40;39.50
52739;DHT22;52466;40.122;18.318;2022-07-05T08:00:07;36.40;39.20
52739;DHT22;52466;40.122;18.318;2022-07-05T08:03:15;36.20;39.90
52739;DHT22;52466;40.122;18.318;2022-07-05T08:06:23;36.20;39.70
52739;DHT22;52466;40.122;18.318;2022-07-05T08:09:31;36.20;39.00
52739;DHT22;52466;40.122;18.318;2022-07-05T08:12:38;36.20;38.30
52739;DHT22;52466;40.122;18.318;2022-07-05T08:15:47;36.10;39.20
52739;DHT22;52466;40.122;18.318;2022-07-05T08:18:55;36.00;37.30
52739;DHT22;52466;40.122;18.318;2022-07-05T08:22:22;35.90;37.70
52739;DHT22;52466;40.122;18.318;2022-07-05T08:25:29;35.80;37.50
52739;DHT22;52466;40.122;18.318;2022-07-05T08:28:37;35.70;38.00
52739;DHT22;52466;40.122;18.318;2022-07-05T08:31:47;35.70;37.10
52739;DHT22;52466;40.122;18.318;2022-07-05T08:34:55;35.50;37.00
52739;DHT22;52466;40.122;18.318;2022-07-05T08:38:03;35.50;36.50
52739;DHT22;52466;40.122;18.318;2022-07-05T08:41:11;35.50;37.20
52739;DHT22;52466;40.122;18.318;2022-07-05T08:44:20;35.50;37.30
52739;DHT22;52466;40.122;18.318;2022-07-05T08:47:28;35.50;37.80
52739;DHT22;52466;40.122;18.318;2022-07-05T08:50:39;35.50;36.80
52739;DHT22;52466;40.122;18.318;2022-07-05T08:53:48;35.40;36.40
52739;DHT22;52466;40.122;18.318;2022-07-05T08:56:56;35.50;35.50
52739;DHT22;52466;40.122;18.318;2022-07-05T09:00:04;35.50;35.90
52739;DHT22;52466;40.122;18.318;2022-07-05T09:03:13;35.50;36.60
52739;DHT22;52466;40.122;18.318;2022-07-05T09:06:24;35.50;35.80
52739;DHT22;52466;40.122;18.318;2022-07-05T09:09:33;35.40;35.90
52739;DHT22;52466;40.122;18.318;2022-07-05T09:12:41;35.50;36.70
52739;DHT22;52466;40.122;18.318;2022-07-05T09:15:48;35.50;36.20
52739;DHT22;52466;40.122;18.318;2022-07-05T09:18:56;35.50;37.10
52739;DHT22;52466;40.122;18.318;2022-07-05T09:22:05;35.50;36.50
52739;DHT22;52466;40.122;18.318;2022-07-05T09:25:21;35.50;37.60
52739;DHT22;52466;40.122;18.318;2022-07-05T09:28:29;35.60;35.90
52739;DHT22;52466;40.122;18.318;2022-07-05T09:31:39;35.50;34.30
52739;DHT22;52466;40.122;18.318;2022-07-05T09:34:47;35.60;36.10
52739;DHT22;52466;40.122;18.318;2022-07-05T09:37:55;35.50;36.10
52739;DHT22;52466;40.122;18.318;2022-07-05T09:41:03;35.50;35.80
52739;DHT22;52466;40.122;18.318;2022-07-05T09:44:10;35.50;36.50
52739;DHT22;52466;40.122;18.318;2022-07-05T09:47:28;35.50;36.40
52739;DHT22;52466;40.122;18.318;2022-07-05T09:50:36;35.70;36.30
52739;DHT22;52466;40.122;18.318;2022-07-05T09:53:53;35.80;36.30
52739;DHT22;52466;40.122;18.318;2022-07-05T09:57:01;35.80;36.80
52739;DHT22;52466;40.122;18.318;2022-07-05T10:00:18;35.80;37.40
52739;DHT22;52466;40.122;18.318;2022-07-05T10:03:54;35.60;37.00
52739;DHT22;52466;40.122;18.318;2022-07-05T10:07:02;35.50;37.70
52739;DHT22;52466;40.122;18.318;2022-07-05T10:10:18;35.60;37.90
52739;DHT22;52466;40.122;18.318;2022-07-05T10:13:26;35.70;36.90
52739;DHT22;52466;40.122;18.318;2022-07-05T10:16:35;35.80;36.20
52739;DHT22;52466;40.122;18.318;2022-07-05T10:19:46;35.80;36.60
52739;DHT22;52466;40.122;18.318;2022-07-05T10:22:56;35.70;36.00
52739;DHT22;52466;40.122;18.318;2022-07-05T10:26:04;35.70;36.20
52739;DHT22;52466;40.122;18.318;2022-07-05T10:29:14;35.70;36.00
52739;DHT22;52466;40.122;18.318;2022-07-05T10:32:23;35.80;36.50
52739;DHT22;52466;40.122;18.318;2022-07-05T10:35:32;35.80;35.60
52739;DHT22;52466;40.122;18.318;2022-07-05T10:38:43;36.00;34.60
52739;DHT22;52466;40.122;18.318;2022-07-05T10:41:51;36.20;34.70
52739;DHT22;52466;40.122;18.318;2022-07-05T10:44:59;36.40;33.80
52739;DHT22;52466;40.122;18.318;2022-07-05T10:48:18;36.40;34.50
52739;DHT22;52466;40.122;18.318;2022-07-05T10:52:03;36.50;34.00
52739;DHT22;52466;40.122;18.318;2022-07-05T10:55:57;36.50;33.20
52739;DHT22;52466;40.122;18.318;2022-07-05T10:59:08;36.50;33.90
52739;DHT22;52466;40.122;18.318;2022-07-05T11:02:24;36.60;33.30
52739;DHT22;52466;40.122;18.318;2022-07-05T11:05:38;36.60;33.00
52739;DHT22;52466;40.122;18.318;2022-07-05T11:12:12;36.50;33.20
52739;DHT22;52466;40.122;18.318;2022-07-05T11:15:27;36.60;33.00
52739;DHT22;52466;40.122;18.318;2022-07-05T11:18:44;36.60;33.00
52739;DHT22;52466;40.122;18.318;2022-07-05T11:22:05;36.80;33.00
52739;DHT22;52466;40.122;18.318;2022-07-05T11:25:14;36.90;32.50
52739;DHT22;52466;40.122;18.318;2022-07-05T11:28:23;36.90;32.60
52739;DHT22;52466;40.122;18.318;2022-07-05T11:31:40;36.90;32.30
52739;DHT22;52466;40.122;18.318;2022-07-05T11:42:27;37.00;31.80
52739;DHT22;52466;40.122;18.318;2022-07-05T11:45:35;36.90;32.80
52739;DHT22;52466;40.122;18.318;2022-07-05T11:48:47;37.00;31.70
52739;DHT22;52466;40.122;18.318;2022-07-05T11:51:58;37.00;31.50
52739;DHT22;52466;40.122;18.318;2022-07-05T11:55:11;37.10;31.60
52739;DHT22;52466;40.122;18.318;2022-07-05T11:58:19;37.20;32.10
52739;DHT22;52466;40.122;18.318;2022-07-05T12:01:27;37.30;31.20
52739;DHT22;52466;40.122;18.318;2022-07-05T12:04:34;37.30;31.30
52739;DHT22;52466;40.122;18.318;2022-07-05T12:07:55;37.30;31.40
52739;DHT22;52466;40.122;18.318;2022-07-05T12:11:03;37.40;30.00
52739;DHT22;52466;40.122;18.318;2022-07-05T12:14:29;37.50;30.70
52739;DHT22;52466;40.122;18.318;2022-07-05T12:17:41;37.50;30.40
52739;DHT22;52466;40.122;18.318;2022-07-05T12:20:49;37.50;30.40
52739;DHT22;52466;40.122;18.318;2022-07-05T12:23:57;37.50;34.70
52739;DHT22;52466;40.122;18.318;2022-07-05T12:27:05;37.30;35.40
52739;DHT22;52466;40.122;18.318;2022-07-05T12:30:14;37.10;35.20
52739;DHT22;52466;40.122;18.318;2022-07-05T12:33:22;36.90;34.50
52739;DHT22;52466;40.122;18.318;2022-07-05T12:36:30;36.90;36.40
52739;DHT22;52466;40.122;18.318;2022-07-05T12:39:38;36.90;37.00
52739;DHT22;52466;40.122;18.318;2022-07-05T12:42:41;36.60;37.10
52739;DHT22;52466;40.122;18.318;2022-07-05T12:49:10;36.30;38.40
52739;DHT22;52466;40.122;18.318;2022-07-05T12:52:18;36.30;37.90
52739;DHT22;52466;40.122;18.318;2022-07-05T12:55:35;36.10;38.60
52739;DHT22;52466;40.122;18.318;2022-07-05T12:59:04;36.00;38.70
52739;DHT22;52466;40.122;18.318;2022-07-05T13:02:11;36.00;38.80
52739;DHT22;52466;40.122;18.318;2022-07-05T13:05:22;35.90;38.70
52739;DHT22;52466;40.122;18.318;2022-07-05T13:08:31;36.00;38.00
52739;DHT22;52466;40.122;18.318;2022-07-05T13:11:39;36.10;38.00
52739;DHT22;52466;40.122;18.318;2022-07-05T13:14:48;36.20;40.60
52739;DHT22;52466;40.122;18.318;2022-07-05T13:17:56;36.10;39.90
52739;DHT22;52466;40.122;18.318;2022-07-05T13:21:04;36.10;41.90
52739;DHT22;52466;40.122;18.318;2022-07-05T13:24:11;36.20;42.50
52739;DHT22;52466;40.122;18.318;2022-07-05T13:27:19;36.10;40.40
52739;DHT22;52466;40.122;18.318;2022-07-05T13:30:27;36.00;40.00
52739;DHT22;52466;40.122;18.318;2022-07-05T13:33:34;36.00;40.50
52739;DHT22;52466;40.122;18.318;2022-07-05T13:36:42;36.00;40.70
52739;DHT22;52466;40.122;18.318;2022-07-05T13:39:50;36.10;40.40
52739;DHT22;52466;40.122;18.318;2022-07-05T13:42:58;36.00;39.00
52739;DHT22;52466;40.122;18.318;2022-07-05T13:46:06;35.80;39.70
52739;DHT22;52466;40.122;18.318;2022-07-05T13:49:14;35.80;39.50
52739;DHT22;52466;40.122;18.318;2022-07-05T13:52:22;35.80;40.90
52739;DHT22;52466;40.122;18.318;2022-07-05T13:55:29;35.90;40.80
52739;DHT22;52466;40.122;18.318;2022-07-05T13:58:37;35.70;40.60
52739;DHT22;52466;40.122;18.318;2022-07-05T14:01:45;35.80;41.30
52739;DHT22;52466;40.122;18.318;2022-07-05T14:04:53;35.80;40.60
52739;DHT22;52466;40.122;18.318;2022-07-05T14:08:01;35.70;40.80
52739;DHT22;52466;40.122;18.318;2022-07-05T14:11:09;35.80;41.00
52739;DHT22;52466;40.122;18.318;2022-07-05T14:14:17;35.80;41.10
52739;DHT22;52466;40.122;18.318;2022-07-05T14:17:25;35.80;40.70
52739;DHT22;52466;40.122;18.318;2022-07-05T14:20:32;35.90;40.20
52739;DHT22;52466;40.122;18.318;2022-07-05T14:23:41;36.00;40.30
52739;DHT22;52466;40.122;18.318;2022-07-05T14:26:49;36.00;40.80
52739;DHT22;52466;40.122;18.318;2022-07-05T14:29:57;36.00;40.80
52739;DHT22;52466;40.122;18.318;2022-07-05T14:33:05;36.10;40.00
52739;DHT22;52466;40.122;18.318;2022-07-05T14:36:13;36.20;40.00
52739;DHT22;52466;40.122;18.318;2022-07-05T14:39:21;36.20;40.50
52739;DHT22;52466;40.122;18.318;2022-07-05T14:42:28;36.20;40.50
52739;DHT22;52466;40.122;18.318;2022-07-05T14:45:38;36.10;40.40
52739;DHT22;52466;40.122;18.318;2022-07-05T14:48:46;36.10;41.10
52739;DHT22;52466;40.122;18.318;2022-07-05T14:51:57;36.10;41.80
52739;DHT22;52466;40.122;18.318;2022-07-05T14:55:05;36.10;36.70
52739;DHT22;52466;40.122;18.318;2022-07-05T14:58:13;36.20;36.20
52739;DHT22;52466;40.122;18.318;2022-07-05T15:01:38;36.30;35.10
52739;DHT22;52466;40.122;18.318;2022-07-05T15:05:37;36.40;34.60
52739;DHT22;52466;40.122;18.318;2022-07-05T15:08:45;36.30;33.80
52739;DHT22;52466;40.122;18.318;2022-07-05T15:12:11;36.30;34.20
52739;DHT22;52466;40.122;18.318;2022-07-05T15:15:47;36.10;34.10
52739;DHT22;52466;40.122;18.318;2022-07-05T15:18:55;36.00;34.00
52739;DHT22;52466;40.122;18.318;2022-07-05T15:22:03;35.80;34.10
52739;DHT22;52466;40.122;18.318;2022-07-05T15:25:22;35.60;33.40
52739;DHT22;52466;40.122;18.318;2022-07-05T15:28:32;35.50;32.70
52739;DHT22;52466;40.122;18.318;2022-07-05T15:31:40;35.50;32.10
52739;DHT22;52466;40.122;18.318;2022-07-05T15:34:48;35.40;32.10
52739;DHT22;52466;40.122;18.318;2022-07-05T15:37:55;35.40;32.40
52739;DHT22;52466;40.122;18.318;2022-07-05T15:41:03;35.50;32.60
52739;DHT22;52466;40.122;18.318;2022-07-05T15:44:11;35.50;32.30
52739;DHT22;52466;40.122;18.318;2022-07-05T15:47:18;35.40;31.80
52739;DHT22;52466;40.122;18.318;2022-07-05T15:50:26;35.50;31.70
52739;DHT22;52466;40.122;18.318;2022-07-05T15:53:35;35.50;31.90
52739;DHT22;52466;40.122;18.318;2022-07-05T15:56:42;35.70;32.20
52739;DHT22;52466;40.122;18.318;2022-07-05T15:59:50;35.80;32.10
52739;DHT22;52466;40.122;18.318;2022-07-05T16:02:58;35.90;31.60
52739;DHT22;52466;40.122;18.318;2022-07-05T16:06:06;36.00;31.50
52739;DHT22;52466;40.122;18.318;2022-07-05T16:09:14;36.00;31.50
52739;DHT22;52466;40.122;18.318;2022-07-05T16:12:22;36.00;32.00
52739;DHT22;52466;40.122;18.318;2022-07-05T16:15:29;36.00;32.30
52739;DHT22;52466;40.122;18.318;2022-07-05T16:18:56;36.00;32.10
52739;DHT22;52466;40.122;18.318;2022-07-05T16:22:05;35.90;31.80
52739;DHT22;52466;40.122;18.318;2022-07-05T16:25:12;35.80;32.50
52739;DHT22;52466;40.122;18.318;2022-07-05T16:28:22;35.60;32.50
52739;DHT22;52466;40.122;18.318;2022-07-05T16:31:31;35.60;32.80
52739;DHT22;52466;40.122;18.318;2022-07-05T16:34:38;35.50;33.20
52739;DHT22;52466;40.122;18.318;2022-07-05T16:37:46;35.50;33.00
52739;DHT22;52466;40.122;18.318;2022-07-05T16:40:54;35.40;33.20
52739;DHT22;52466;40.122;18.318;2022-07-05T16:44:01;35.40;33.80
52739;DHT22;52466;40.122;18.318;2022-07-05T16:47:10;35.30;33.60
52739;DHT22;52466;40.122;18.318;2022-07-05T16:50:18;35.20;33.10
52739;DHT22;52466;40.122;18.318;2022-07-05T16:53:25;35.10;33.30
52739;DHT22;52466;40.122;18.318;2022-07-05T16:56:33;35.00;33.40
52739;DHT22;52466;40.122;18.318;2022-07-05T16:59:41;35.00;34.00
52739;DHT22;52466;40.122;18.318;2022-07-05T17:02:49;35.00;34.10
52739;DHT22;52466;40.122;18.318;2022-07-05T17:05:57;34.90;34.50
52739;DHT22;52466;40.122;18.318;2022-07-05T17:09:04;34.80;34.00
52739;DHT22;52466;40.122;18.318;2022-07-05T17:12:12;34.80;33.50
52739;DHT22;52466;40.122;18.318;2022-07-05T17:15:20;34.80;34.20
52739;DHT22;52466;40.122;18.318;2022-07-05T17:18:27;34.70;34.00
52739;DHT22;52466;40.122;18.318;2022-07-05T17:21:35;34.60;34.10
52739;DHT22;52466;40.122;18.318;2022-07-05T17:24:44;34.70;34.70
52739;DHT22;52466;40.122;18.318;2022-07-05T17:27:52;34.60;35.70
52739;DHT22;52466;40.122;18.318;2022-07-05T17:31:00;34.50;36.60
52739;DHT22;52466;40.122;18.318;2022-07-05T17:34:07;34.50;37.40
52739;DHT22;52466;40.122;18.318;2022-07-05T17:37:15;34.50;37.40
52739;DHT22;52466;40.122;18.318;2022-07-05T17:40:23;34.40;37.50
52739;DHT22;52466;40.122;18.318;2022-07-05T17:43:31;34.30;38.30
52739;DHT22;52466;40.122;18.318;2022-07-05T17:46:38;34.20;39.10
52739;DHT22;52466;40.122;18.318;2022-07-05T17:49:48;34.10;39.50
52739;DHT22;52466;40.122;18.318;2022-07-05T17:52:56;34.00;40.80
52739;DHT22;52466;40.122;18.318;2022-07-05T17:56:13;34.00;40.70
52739;DHT22;52466;40.122;18.318;2022-07-05T17:59:21;33.90;40.80
52739;DHT22;52466;40.122;18.318;2022-07-05T18:02:29;33.80;41.90
52739;DHT22;52466;40.122;18.318;2022-07-05T18:05:37;33.80;41.60
52739;DHT22;52466;40.122;18.318;2022-07-05T18:08:44;33.60;41.70
52739;DHT22;52466;40.122;18.318;2022-07-05T18:11:52;33.50;41.70
52739;DHT22;52466;40.122;18.318;2022-07-05T18:15:00;33.50;40.90
52739;DHT22;52466;40.122;18.318;2022-07-05T18:18:09;33.50;40.70
52739;DHT22;52466;40.122;18.318;2022-07-05T18:21:17;33.40;42.10
52739;DHT22;52466;40.122;18.318;2022-07-05T18:24:26;33.30;41.40
52739;DHT22;52466;40.122;18.318;2022-07-05T18:27:34;33.30;41.80
52739;DHT22;52466;40.122;18.318;2022-07-05T18:30:41;33.30;42.00
52739;DHT22;52466;40.122;18.318;2022-07-05T18:33:49;33.30;42.70
52739;DHT22;52466;40.122;18.318;2022-07-05T18:36:57;33.20;42.60
52739;DHT22;52466;40.122;18.318;2022-07-05T18:40:05;33.10;42.80
52739;DHT22;52466;40.122;18.318;2022-07-05T18:43:13;33.10;43.10
52739;DHT22;52466;40.122;18.318;2022-07-05T18:46:22;33.10;43.60
52739;DHT22;52466;40.122;18.318;2022-07-05T18:49:29;33.10;44.00
52739;DHT22;52466;40.122;18.318;2022-07-05T18:52:37;33.10;44.60
52739;DHT22;52466;40.122;18.318;2022-07-05T18:55:45;33.00;45.90
52739;DHT22;52466;40.122;18.318;2022-07-05T18:58:53;32.90;47.40
52739;DHT22;52466;40.122;18.318;2022-07-05T19:02:12;32.80;47.80
52739;DHT22;52466;40.122;18.318;2022-07-05T19:05:20;32.60;48.10
52739;DHT22;52466;40.122;18.318;2022-07-05T19:08:51;32.40;49.00
52739;DHT22;52466;40.122;18.318;2022-07-05T19:12:18;32.20;49.20
52739;DHT22;52466;40.122;18.318;2022-07-05T19:15:44;32.00;49.70
52739;DHT22;52466;40.122;18.318;2022-07-05T19:18:52;31.90;51.00
52739;DHT22;52466;40.122;18.318;2022-07-05T19:22:00;31.90;51.60
52739;DHT22;52466;40.122;18.318;2022-07-05T19:25:08;31.90;52.30
52739;DHT22;52466;40.122;18.318;2022-07-05T19:28:15;31.90;53.00
52739;DHT22;52466;40.122;18.318;2022-07-05T19:31:23;31.90;53.50
52739;DHT22;52466;40.122;18.318;2022-07-05T19:34:31;31.80;53.90
52739;DHT22;52466;40.122;18.318;2022-07-05T19:37:39;31.70;54.20
52739;DHT22;52466;40.122;18.318;2022-07-05T19:40:46;31.80;54.30
52739;DHT22;52466;40.122;18.318;2022-07-05T19:43:54;31.80;54.40
52739;DHT22;52466;40.122;18.318;2022-07-05T19:47:02;31.80;54.70
52739;DHT22;52466;40.122;18.318;2022-07-05T19:50:10;31.80;54.60
52739;DHT22;52466;40.122;18.318;2022-07-05T19:53:18;31.90;54.80